Time;durP1;ratioP1;P1;durP2;ratioP2;P2;SDS_P1;SDS_P2;PMS_P1;PMS_P2;Temp;Humidity;BMP_temperature;BMP_pressure;BME280_temperature;BME280_humidity;BME280_pressure;Samples;Min_cycle;Max_cycle;Signal;HPM_P1;HPM_P2
2022/09/10 00:00:06;;;;;;;7.10;6.40;;;13.90;99.90;;;;;;5054722;28;20658;-71
2022/09/10 00:02:33;;;;;;;6.60;5.73;;;13.80;99.90;;;;;;5054427;28;20206;-71
2022/09/10 00:05:01;;;;;;;11.53;6.40;;;13.80;99.90;;;;;;5053821;28;20271;-70
2022/09/10 00:07:30;;;;;;;6.33;5.70;;;13.80;99.90;;;;;;5054737;28;20681;-71
2022/09/10 00:09:57;;;;;;;6.63;5.30;;;13.80;99.90;;;;;;5055168;28;20213;-70
2022/09/10 00:12:24;;;;;;;7.77;6.47;;;13.80;99.90;;;;;;5055247;28;20202;-71
2022/09/10 00:14:51;;;;;;;6.80;5.80;;;13.80;99.90;;;;;;5053849;28;20209;-71
2022/09/10 00:17:19;;;;;;;6.23;5.60;;;13.80;99.90;;;;;;5054788;28;20297;-71
2022/09/10 00:19:46;;;;;;;7.97;5.67;;;13.80;99.90;;;;;;5055025;28;20224;-70
2022/09/10 00:22:13;;;;;;;6.47;5.43;;;13.70;99.90;;;;;;5054416;28;20225;-71
2022/09/10 00:24:39;;;;;;;8.00;5.43;;;13.70;99.90;;;;;;5055411;28;20201;-71
2022/09/10 00:27:06;;;;;;;5.77;5.20;;;13.70;99.90;;;;;;5054405;28;20194;-70
2022/09/10 00:29:33;;;;;;;6.60;5.40;;;13.70;99.90;;;;;;5054619;28;20210;-70
2022/09/10 00:32:00;;;;;;;6.00;5.40;;;13.70;99.90;;;;;;5052892;28;20210;-70
2022/09/10 00:34:31;;;;;;;6.10;5.47;;;13.70;99.90;;;;;;5053625;28;20207;-71
2022/09/10 00:36:58;;;;;;;5.80;5.20;;;13.70;99.90;;;;;;5053343;28;20246;-71
2022/09/10 00:39:25;;;;;;;7.40;5.87;;;13.70;99.90;;;;;;5054099;28;20224;-71
2022/09/10 00:41:54;;;;;;;6.57;5.83;;;13.70;99.90;;;;;;5052203;28;20210;-70
2022/09/10 00:44:57;;;;;;;6.73;6.03;;;13.80;99.90;;;;;;5052847;28;20206;-70
2022/09/10 00:47:28;;;;;;;7.53;6.57;;;13.70;99.90;;;;;;5053430;28;20212;-70
2022/09/10 00:50:01;;;;;;;8.27;6.97;;;13.80;99.90;;;;;;5052497;28;20589;-69
2022/09/10 00:52:28;;;;;;;7.17;6.20;;;13.80;99.90;;;;;;5050515;28;20206;-70
2022/09/10 00:54:56;;;;;;;8.63;7.20;;;13.80;99.90;;;;;;5053039;28;20205;-70
2022/09/10 00:57:23;;;;;;;9.00;7.63;;;13.70;99.90;;;;;;5050649;28;20226;-70
2022/09/10 00:59:53;;;;;;;8.70;7.67;;;13.70;99.90;;;;;;5053779;28;20287;-70
2022/09/10 01:02:20;;;;;;;9.73;7.80;;;13.70;99.90;;;;;;5052741;28;20206;-70
2022/09/10 01:04:47;;;;;;;9.20;7.57;;;13.70;99.90;;;;;;5034091;28;20270;-70
2022/09/10 01:07:16;;;;;;;8.77;7.20;;;13.70;99.90;;;;;;5049695;28;20210;-70
2022/09/10 01:09:43;;;;;;;10.93;7.77;;;13.60;99.90;;;;;;5052894;28;20214;-70
2022/09/10 01:12:30;;;;;;;8.30;6.70;;;13.60;99.90;;;;;;5052127;28;20604;-70
2022/09/10 01:15:14;;;;;;;8.43;6.00;;;13.60;99.90;;;;;;5045786;28;20214;-70
2022/09/10 01:17:56;;;;;;;8.37;5.50;;;13.50;99.90;;;;;;5050408;28;20243;-70
2022/09/10 01:20:47;;;;;;;7.10;5.27;;;13.50;99.90;;;;;;5051408;28;20210;-69
2022/09/10 01:23:44;;;;;;;7.23;6.03;;;13.50;99.90;;;;;;5052983;28;20233;-70
2022/09/10 01:26:24;;;;;;;6.77;5.77;;;13.50;99.90;;;;;;5052898;28;20207;-70
2022/09/10 01:29:00;;;;;;;6.70;5.83;;;13.50;99.90;;;;;;5053213;28;20733;-71
2022/09/10 01:31:36;;;;;;;8.57;6.10;;;13.50;99.90;;;;;;5053250;28;20560;-70
2022/09/10 01:34:07;;;;;;;7.23;6.20;;;13.40;99.90;;;;;;5052128;28;20205;-70
2022/09/10 01:36:40;;;;;;;6.83;6.13;;;13.40;99.90;;;;;;5052740;28;20290;-71
2022/09/10 01:39:08;;;;;;;6.37;5.77;;;13.40;99.90;;;;;;5050403;28;20835;-70
2022/09/10 01:41:35;;;;;;;7.53;6.57;;;13.40;99.90;;;;;;5053309;28;20210;-70
2022/09/10 01:44:09;;;;;;;7.50;6.23;;;13.30;99.90;;;;;;5051763;28;20348;-69
2022/09/10 01:46:44;;;;;;;7.67;6.17;;;13.30;99.90;;;;;;5053169;28;20664;-70
2022/09/10 01:49:20;;;;;;;6.40;5.40;;;13.30;99.90;;;;;;5052675;28;20529;-70
2022/09/10 01:52:07;;;;;;;7.20;6.00;;;13.30;99.90;;;;;;5053758;28;20606;-71
2022/09/10 01:54:45;;;;;;;8.27;6.23;;;13.30;99.90;;;;;;5048989;28;20255;-70
2022/09/10 01:57:26;;;;;;;6.50;5.73;;;13.40;99.90;;;;;;5051552;28;20206;-71
2022/09/10 02:00:03;;;;;;;6.90;5.27;;;13.40;99.90;;;;;;5049683;28;20217;-70
2022/09/10 02:02:36;;;;;;;7.33;6.10;;;13.40;99.90;;;;;;5053136;28;20692;-71
2022/09/10 02:05:05;;;;;;;7.97;5.83;;;13.40;99.90;;;;;;5052843;28;20206;-70
2022/09/10 02:07:35;;;;;;;8.47;5.53;;;13.40;99.90;;;;;;5052199;28;20206;-71
2022/09/10 02:10:04;;;;;;;6.30;5.43;;;13.40;99.90;;;;;;5043351;28;20206;-70
2022/09/10 02:12:31;;;;;;;7.73;5.60;;;13.50;99.90;;;;;;5046029;28;20581;-71
2022/09/10 02:14:59;;;;;;;6.87;5.80;;;13.50;99.90;;;;;;5038640;28;20362;-71
2022/09/10 02:17:30;;;;;;;7.00;5.77;;;13.50;99.90;;;;;;5053498;28;20214;-72
2022/09/10 02:19:58;;;;;;;7.27;6.20;;;13.60;99.90;;;;;;5051598;28;20202;-71
2022/09/10 02:22:26;;;;;;;7.83;6.60;;;13.50;99.90;;;;;;5051346;28;20229;-71
2022/09/10 02:24:52;;;;;;;7.97;6.23;;;13.60;99.90;;;;;;5049651;28;20210;-70
2022/09/10 02:27:19;;;;;;;8.43;6.43;;;13.60;99.90;;;;;;5052308;28;20209;-70
2022/09/10 02:29:46;;;;;;;7.07;5.87;;;13.60;99.90;;;;;;5050086;28;20202;-70
2022/09/10 02:32:14;;;;;;;9.07;7.00;;;13.60;99.90;;;;;;5051048;28;20224;-70
2022/09/10 02:34:41;;;;;;;9.67;6.33;;;13.60;99.90;;;;;;5052438;28;20589;-70
2022/09/10 02:37:08;;;;;;;9.20;6.50;;;13.60;99.90;;;;;;5050109;28;20233;-71
2022/09/10 02:39:35;;;;;;;8.93;6.40;;;13.60;99.90;;;;;;5049328;28;20690;-71
2022/09/10 02:42:02;;;;;;;7.47;6.13;;;13.60;99.90;;;;;;5050941;28;20264;-71
2022/09/10 02:44:28;;;;;;;8.40;6.13;;;13.60;99.90;;;;;;5051600;28;20205;-70
2022/09/10 02:46:55;;;;;;;7.37;5.97;;;13.60;99.90;;;;;;5052888;28;20214;-71
2022/09/10 02:49:24;;;;;;;9.97;6.53;;;13.60;99.90;;;;;;5051160;28;20205;-71
2022/09/10 02:51:50;;;;;;;8.23;6.33;;;13.60;99.90;;;;;;5051489;28;20209;-71
2022/09/10 02:54:18;;;;;;;9.80;6.60;;;13.60;99.90;;;;;;5050617;28;20213;-71
2022/09/10 02:56:46;;;;;;;9.93;6.83;;;13.60;99.90;;;;;;5051025;28;20214;-70
2022/09/10 02:59:13;;;;;;;10.67;7.03;;;13.60;99.90;;;;;;5050234;28;20221;-71
2022/09/10 03:01:40;;;;;;;11.57;7.60;;;13.60;99.90;;;;;;5051483;28;20198;-70
2022/09/10 03:04:07;;;;;;;9.07;6.63;;;13.60;99.90;;;;;;5050915;28;20288;-70
2022/09/10 03:06:35;;;;;;;9.50;6.80;;;13.50;99.90;;;;;;5051967;28;20293;-71
2022/09/10 03:09:04;;;;;;;10.60;7.20;;;13.60;99.90;;;;;;5052108;28;20209;-70
2022/09/10 03:11:31;;;;;;;10.03;7.30;;;13.50;99.90;;;;;;5050807;28;20213;-72
2022/09/10 03:13:58;;;;;;;8.33;6.73;;;13.50;99.90;;;;;;5052219;28;20236;-71
2022/09/10 03:16:25;;;;;;;10.47;7.30;;;13.40;99.90;;;;;;5054868;28;20205;-71
2022/09/10 03:18:52;;;;;;;9.77;7.53;;;13.40;99.90;;;;;;5057434;28;20229;-71
2022/09/10 03:21:21;;;;;;;9.10;6.90;;;13.40;99.90;;;;;;5054601;28;20206;-71
2022/09/10 03:23:51;;;;;;;8.57;6.83;;;13.40;99.90;;;;;;5053992;28;20216;-71
2022/09/10 03:26:20;;;;;;;9.57;6.70;;;13.40;99.90;;;;;;5055548;28;20209;-71
2022/09/10 03:28:48;;;;;;;8.87;7.03;;;13.30;99.90;;;;;;5055478;28;20602;-71
2022/09/10 03:31:16;;;;;;;9.23;6.97;;;13.20;99.90;;;;;;5055746;28;20263;-70
2022/09/10 03:33:44;;;;;;;9.47;8.03;;;13.20;99.90;;;;;;5053435;28;20734;-70
2022/09/10 03:36:13;;;;;;;11.77;7.57;;;13.20;99.90;;;;;;5054946;28;20214;-70
2022/09/10 03:38:40;;;;;;;11.40;8.30;;;13.20;99.90;;;;;;5056037;28;20747;-70
2022/09/10 03:41:08;;;;;;;10.97;7.93;;;13.10;99.90;;;;;;5053809;28;20209;-69
2022/09/10 03:43:35;;;;;;;11.37;8.50;;;13.10;99.90;;;;;;5054448;28;20217;-70
2022/09/10 03:46:02;;;;;;;11.37;8.43;;;13.20;99.90;;;;;;5056089;28;20228;-70
2022/09/10 03:48:29;;;;;;;10.27;8.27;;;13.10;99.90;;;;;;5055629;28;20210;-70
2022/09/10 03:50:56;;;;;;;9.50;7.57;;;13.10;99.90;;;;;;5053137;28;20216;-69
2022/09/10 03:53:23;;;;;;;10.17;7.77;;;13.10;99.90;;;;;;5052942;28;20201;-70
2022/09/10 03:55:54;;;;;;;11.47;8.90;;;13.00;99.90;;;;;;5054648;28;20213;-70
2022/09/10 03:58:22;;;;;;;10.53;8.60;;;13.10;99.90;;;;;;5055405;28;20214;-71
2022/09/10 04:00:49;;;;;;;10.87;8.20;;;13.00;99.90;;;;;;5053584;28;20213;-70
2022/09/10 04:03:16;;;;;;;12.47;8.80;;;13.00;99.90;;;;;;5053735;28;20217;-70
2022/09/10 04:05:43;;;;;;;11.13;8.80;;;13.00;99.90;;;;;;5053989;28;20209;-70
2022/09/10 04:08:10;;;;;;;9.07;7.30;;;13.00;99.90;;;;;;5053529;28;20198;-70
2022/09/10 04:10:38;;;;;;;8.40;7.43;;;13.10;99.90;;;;;;5054013;28;20568;-71
2022/09/10 04:13:04;;;;;;;8.33;6.87;;;13.10;99.90;;;;;;5054149;28;20232;-69
2022/09/10 04:15:33;;;;;;;10.80;8.13;;;13.10;99.90;;;;;;5042504;28;20209;-71
2022/09/10 04:18:00;;;;;;;9.73;7.37;;;13.10;99.90;;;;;;5055469;28;20220;-71
2022/09/10 04:20:27;;;;;;;9.37;7.73;;;13.10;99.90;;;;;;5053258;28;20202;-70
2022/09/10 04:22:55;;;;;;;10.00;7.67;;;13.00;99.90;;;;;;5052721;28;20718;-71
2022/09/10 04:25:22;;;;;;;8.10;7.27;;;13.00;99.90;;;;;;5052331;28;20394;-71
2022/09/10 04:27:49;;;;;;;7.30;6.60;;;13.00;99.90;;;;;;5054491;28;20296;-70
2022/09/10 04:30:17;;;;;;;10.63;7.30;;;13.10;99.90;;;;;;5054565;28;20210;-71
2022/09/10 04:32:46;;;;;;;7.97;6.90;;;13.10;99.90;;;;;;5054449;28;20317;-70
2022/09/10 04:35:14;;;;;;;11.83;7.57;;;13.10;99.90;;;;;;5054844;28;20214;-71
2022/09/10 04:37:42;;;;;;;9.97;7.93;;;13.00;99.90;;;;;;5053359;28;20240;-72
2022/09/10 04:40:10;;;;;;;9.30;8.07;;;13.00;99.90;;;;;;5054291;28;20291;-72
2022/09/10 04:42:37;;;;;;;10.47;8.03;;;13.10;99.90;;;;;;5052948;28;20213;-71
2022/09/10 04:45:05;;;;;;;11.27;10.03;;;13.00;99.90;;;;;;5054588;28;20221;-71
2022/09/10 04:47:32;;;;;;;9.30;8.37;;;13.00;99.90;;;;;;5054451;28;20206;-71
2022/09/10 04:50:01;;;;;;;10.17;8.97;;;13.00;99.90;;;;;;5053759;28;20259;-70
2022/09/10 04:52:28;;;;;;;8.33;7.30;;;13.10;99.90;;;;;;5053297;28;20202;-71
2022/09/10 04:54:54;;;;;;;8.60;7.30;;;13.10;99.90;;;;;;5054194;28;20221;-71
2022/09/10 04:57:22;;;;;;;10.33;7.77;;;13.10;99.90;;;;;;5054123;28;20569;-71
2022/09/10 04:59:49;;;;;;;8.50;7.60;;;13.10;99.90;;;;;;5054051;28;20325;-72
2022/09/10 05:02:16;;;;;;;9.77;7.27;;;13.10;99.90;;;;;;5052547;28;20593;-72
2022/09/10 05:04:43;;;;;;;12.10;9.60;;;13.10;99.90;;;;;;5054454;28;20206;-71
2022/09/10 05:07:11;;;;;;;10.27;8.00;;;13.20;99.90;;;;;;5054952;28;20307;-72
2022/09/10 05:09:37;;;;;;;8.87;6.73;;;13.10;99.90;;;;;;5054065;28;20212;-71
2022/09/10 05:12:05;;;;;;;8.13;7.10;;;13.20;99.90;;;;;;5053068;28;20228;-72
2022/09/10 05:14:32;;;;;;;7.33;6.40;;;13.10;99.90;;;;;;5051951;28;20210;-71
2022/09/10 05:16:59;;;;;;;6.73;6.10;;;13.10;99.90;;;;;;5052195;28;20720;-72
2022/09/10 05:19:26;;;;;;;6.63;5.93;;;13.10;99.90;;;;;;5052483;28;20230;-71
2022/09/10 05:21:53;;;;;;;6.70;6.00;;;13.10;99.90;;;;;;5052803;28;20551;-71
2022/09/10 05:24:21;;;;;;;7.37;6.00;;;13.10;99.90;;;;;;5050569;28;20216;-71
2022/09/10 05:26:48;;;;;;;7.10;6.03;;;13.10;99.90;;;;;;5051341;28;20206;-69
2022/09/10 05:29:15;;;;;;;7.63;5.83;;;13.20;99.90;;;;;;5051408;28;20216;-71
2022/09/10 05:31:43;;;;;;;6.53;5.30;;;13.20;99.90;;;;;;5042545;28;20205;-72
2022/09/10 05:34:10;;;;;;;7.63;6.37;;;13.20;99.90;;;;;;5052258;28;20599;-71
2022/09/10 05:36:36;;;;;;;7.40;5.80;;;13.10;99.90;;;;;;5053613;28;20237;-70
2022/09/10 05:39:04;;;;;;;5.93;5.40;;;13.10;99.90;;;;;;5052432;28;20230;-71
2022/09/10 05:41:32;;;;;;;7.37;6.23;;;13.10;99.90;;;;;;5053047;28;20220;-71
2022/09/10 05:43:59;;;;;;;6.50;5.80;;;13.10;99.90;;;;;;5051906;28;20658;-71
2022/09/10 05:46:27;;;;;;;8.73;5.83;;;13.10;99.90;;;;;;5053948;28;20213;-71
2022/09/10 05:48:54;;;;;;;9.77;6.47;;;13.10;99.90;;;;;;5052055;28;20701;-70
2022/09/10 05:51:21;;;;;;;7.53;6.13;;;13.10;99.90;;;;;;5052669;28;20202;-70
2022/09/10 05:53:48;;;;;;;7.43;6.23;;;13.10;99.90;;;;;;5050305;28;20210;-71
2022/09/10 05:56:15;;;;;;;7.60;5.90;;;13.10;99.90;;;;;;5051824;28;20209;-71
2022/09/10 05:58:44;;;;;;;7.80;6.33;;;13.20;99.90;;;;;;5052423;28;20224;-70
2022/09/10 06:01:11;;;;;;;7.67;6.87;;;13.20;99.90;;;;;;5051881;28;20263;-70
2022/09/10 06:03:39;;;;;;;7.03;6.00;;;13.20;99.90;;;;;;5049540;28;20202;-69
2022/09/10 06:06:06;;;;;;;6.10;5.50;;;13.20;99.90;;;;;;5052508;28;20205;-70
2022/09/10 06:08:34;;;;;;;6.73;5.73;;;13.20;99.90;;;;;;5052821;28;20628;-70
2022/09/10 06:11:03;;;;;;;6.77;5.70;;;13.30;99.90;;;;;;5051673;28;20206;-70
2022/09/10 06:13:30;;;;;;;6.60;5.63;;;13.30;99.90;;;;;;5050094;28;20206;-71
2022/09/10 06:15:58;;;;;;;9.20;5.63;;;13.30;99.90;;;;;;5051389;28;20301;-70
2022/09/10 06:18:25;;;;;;;5.63;5.03;;;13.30;99.90;;;;;;5052534;28;20328;-70
2022/09/10 06:21:02;;;;;;;6.87;5.10;;;13.30;99.90;;;;;;5051170;28;20712;-70
2022/09/10 06:23:30;;;;;;;6.60;5.90;;;13.30;99.90;;;;;;5047620;28;20236;-70
2022/09/10 06:26:00;;;;;;;5.83;5.23;;;13.30;99.90;;;;;;5048993;28;20213;-69
2022/09/10 06:28:28;;;;;;;6.97;5.00;;;13.40;99.90;;;;;;5040313;28;20585;-71
2022/09/10 06:30:54;;;;;;;5.77;4.63;;;13.30;99.90;;;;;;5037632;28;20202;-70
2022/09/10 06:33:23;;;;;;;6.87;5.07;;;13.30;99.90;;;;;;5041816;28;20205;-71
2022/09/10 06:35:52;;;;;;;5.93;5.33;;;13.30;99.90;;;;;;5049773;28;20232;-69
2022/09/10 06:38:19;;;;;;;6.17;5.10;;;13.30;99.90;;;;;;5050974;28;20234;-71
2022/09/10 06:40:53;;;;;;;7.20;5.10;;;13.30;99.90;;;;;;5048616;28;20244;-72
2022/09/10 06:43:21;;;;;;;6.47;5.00;;;13.40;99.90;;;;;;5048605;28;20198;-72
2022/09/10 06:45:48;;;;;;;5.87;4.83;;;13.50;99.90;;;;;;5051921;28;20240;-73
2022/09/10 06:48:17;;;;;;;5.83;5.23;;;13.50;99.90;;;;;;5045897;28;20271;-72
2022/09/10 06:50:51;;;;;;;5.97;4.90;;;13.50;99.90;;;;;;5046428;28;20198;-72
2022/09/10 06:53:20;;;;;;;7.33;5.80;;;13.60;99.90;;;;;;5047660;28;20241;-70
2022/09/10 06:55:47;;;;;;;5.70;5.17;;;13.60;99.90;;;;;;5049765;28;20210;-71
2022/09/10 06:58:14;;;;;;;8.10;5.20;;;13.70;99.90;;;;;;5051465;28;20217;-70
2022/09/10 07:00:41;;;;;;;6.67;5.50;;;13.60;99.90;;;;;;5049503;28;20228;-71
2022/09/10 07:03:08;;;;;;;7.10;6.30;;;13.60;99.90;;;;;;5049405;28;20289;-71
2022/09/10 07:05:35;;;;;;;7.30;5.30;;;13.60;99.90;;;;;;5046447;28;20773;-72
2022/09/10 07:08:04;;;;;;;7.93;6.17;;;13.60;99.90;;;;;;5043899;28;20583;-69
2022/09/10 07:10:31;;;;;;;8.33;6.40;;;13.60;99.90;;;;;;5046721;28;20202;-69
2022/09/10 07:12:59;;;;;;;6.77;6.07;;;13.70;99.90;;;;;;5047613;28;20347;-72
2022/09/10 07:15:27;;;;;;;8.23;6.17;;;13.70;99.90;;;;;;5049522;28;20214;-70
2022/09/10 07:17:54;;;;;;;6.77;5.87;;;13.60;99.90;;;;;;5050231;28;20241;-70
2022/09/10 07:20:24;;;;;;;6.60;5.90;;;13.70;99.90;;;;;;5046033;28;20217;-72
2022/09/10 07:22:54;;;;;;;8.23;6.50;;;13.70;99.90;;;;;;5044659;28;20717;-71
2022/09/10 07:25:22;;;;;;;6.77;5.70;;;13.60;99.90;;;;;;5043588;28;20213;-71
2022/09/10 07:27:49;;;;;;;9.73;6.00;;;13.60;99.90;;;;;;5050267;28;20947;-71
2022/09/10 07:30:17;;;;;;;8.60;5.53;;;13.70;99.90;;;;;;5050833;28;20229;-72
2022/09/10 07:32:47;;;;;;;8.33;5.50;;;13.70;99.90;;;;;;5051976;28;20221;-71
2022/09/10 07:35:14;;;;;;;8.47;5.90;;;13.70;99.90;;;;;;5051981;28;20206;-73
2022/09/10 07:37:41;;;;;;;8.83;5.60;;;13.80;99.90;;;;;;5050446;28;20241;-70
2022/09/10 07:40:09;;;;;;;8.03;6.17;;;13.80;99.90;;;;;;5049652;28;20226;-69
2022/09/10 07:42:37;;;;;;;10.73;8.80;;;13.70;99.90;;;;;;5048271;28;20651;-71
2022/09/10 07:45:06;;;;;;;8.30;6.53;;;13.80;99.90;;;;;;5044646;28;20206;-69
2022/09/10 07:47:33;;;;;;;9.20;7.50;;;13.70;99.90;;;;;;5050091;28;20572;-70
2022/09/10 07:50:00;;;;;;;9.20;6.83;;;13.70;99.90;;;;;;5050891;28;20650;-69
2022/09/10 07:52:26;;;;;;;7.40;6.70;;;13.70;99.90;;;;;;5048245;28;20561;-68
2022/09/10 07:54:53;;;;;;;7.40;5.93;;;13.70;99.90;;;;;;5048701;28;20210;-70
2022/09/10 07:57:20;;;;;;;9.27;7.40;;;13.60;99.90;;;;;;5050828;28;20217;-71
2022/09/10 07:59:48;;;;;;;8.73;7.60;;;13.70;99.90;;;;;;5049271;28;20225;-70
2022/09/10 08:02:15;;;;;;;8.77;7.83;;;13.80;99.90;;;;;;5051129;28;20205;-73
2022/09/10 08:04:42;;;;;;;9.53;8.20;;;13.80;99.90;;;;;;5054750;28;20213;-71
2022/09/10 08:07:09;;;;;;;10.60;8.33;;;13.80;99.90;;;;;;5055761;28;20655;-73
2022/09/10 08:09:36;;;;;;;14.87;9.13;;;13.80;99.90;;;;;;5048716;28;20208;-71
2022/09/10 08:12:06;;;;;;;9.77;8.60;;;13.80;99.90;;;;;;5051289;28;20224;-68
2022/09/10 08:14:33;;;;;;;12.40;9.87;;;13.90;99.90;;;;;;5047002;28;20206;-69
2022/09/10 08:17:01;;;;;;;12.03;9.50;;;13.90;99.90;;;;;;5052798;28;20206;-70
2022/09/10 08:19:28;;;;;;;9.70;8.27;;;13.90;99.90;;;;;;5052386;28;20245;-71
2022/09/10 08:21:55;;;;;;;8.30;7.20;;;14.00;99.90;;;;;;5051536;28;20690;-70
2022/09/10 08:24:22;;;;;;;23.57;12.03;;;14.00;99.90;;;;;;5047079;28;20210;-68
2022/09/10 08:26:49;;;;;;;10.57;8.13;;;14.00;99.90;;;;;;5050729;28;20672;-69
2022/09/10 08:29:16;;;;;;;28.10;12.07;;;14.00;99.90;;;;;;5047881;28;20217;-69
2022/09/10 08:31:43;;;;;;;25.13;13.45;;;14.00;99.90;;;;;;5050606;28;20546;-70
2022/09/10 08:34:12;;;;;;;39.72;17.80;;;14.00;99.90;;;;;;5051201;28;20088;-70
2022/09/10 08:36:39;;;;;;;27.40;12.67;;;14.00;99.90;;;;;;5050539;28;20241;-70
2022/09/10 08:39:06;;;;;;;10.60;9.13;;;14.00;99.90;;;;;;5049386;28;20202;-70
2022/09/10 08:41:42;;;;;;;94.23;31.47;;;14.00;99.90;;;;;;5053679;28;20601;-71
2022/09/10 08:44:15;;;;;;;43.37;18.63;;;14.10;99.90;;;;;;5054946;28;20198;-71
2022/09/10 08:46:47;;;;;;;41.70;18.30;;;14.10;99.90;;;;;;5046006;28;20317;-73
2022/09/10 08:49:24;;;;;;;14.70;10.30;;;14.20;99.90;;;;;;5053794;28;20671;-72
2022/09/10 08:51:56;;;;;;;23.63;11.83;;;14.20;99.90;;;;;;5044838;28;20218;-67
2022/09/10 08:54:27;;;;;;;22.13;11.97;;;14.20;99.90;;;;;;5050825;28;20206;-67
2022/09/10 08:56:57;;;;;;;15.20;9.87;;;14.20;99.90;;;;;;5043211;28;20213;-67
2022/09/10 08:59:28;;;;;;;21.20;11.47;;;14.20;99.90;;;;;;5052026;28;20576;-68
2022/09/10 09:01:58;;;;;;;22.07;13.63;;;14.20;99.90;;;;;;5048967;28;20202;-67
2022/09/10 09:04:33;;;;;;;18.23;11.43;;;14.30;99.90;;;;;;5051664;28;20248;-67
2022/09/10 09:07:06;;;;;;;11.97;9.73;;;14.30;99.90;;;;;;5051952;28;20202;-67
2022/09/10 09:09:32;;;;;;;22.63;12.07;;;14.30;99.90;;;;;;5049528;28;20592;-67
2022/09/10 09:12:04;;;;;;;17.20;10.30;;;14.20;99.90;;;;;;5052093;28;20213;-67
2022/09/10 09:14:47;;;;;;;17.77;10.77;;;14.30;99.90;;;;;;5053055;28;20224;-69
2022/09/10 09:17:36;;;;;;;15.37;9.47;;;14.30;99.90;;;;;;5040102;28;20655;-69
2022/09/10 09:20:14;;;;;;;19.40;13.20;;;14.40;99.90;;;;;;5051293;28;20218;-67
2022/09/10 09:22:47;;;;;;;18.60;12.47;;;14.50;99.90;;;;;;5051785;28;20612;-68
2022/09/10 09:25:22;;;;;;;16.80;11.77;;;14.50;99.90;;;;;;5048627;28;20749;-67
2022/09/10 09:27:52;;;;;;;12.63;10.53;;;14.50;99.90;;;;;;5049367;28;20574;-67
2022/09/10 09:30:22;;;;;;;12.80;9.80;;;14.50;99.90;;;;;;5050344;28;20216;-66
2022/09/10 09:32:49;;;;;;;10.63;9.53;;;14.50;99.90;;;;;;5050535;28;20201;-67
2022/09/10 09:35:27;;;;;;;10.33;9.23;;;14.50;99.90;;;;;;5051294;28;20583;-69
2022/09/10 09:38:10;;;;;;;11.73;10.13;;;14.50;99.90;;;;;;5049935;28;20249;-69
2022/09/10 09:40:43;;;;;;;12.57;10.57;;;14.50;99.90;;;;;;5048470;28;20578;-69
2022/09/10 09:43:22;;;;;;;11.80;10.40;;;14.50;99.90;;;;;;5049468;28;20213;-70
2022/09/10 09:45:52;;;;;;;13.00;10.87;;;14.50;99.90;;;;;;5051221;28;20297;-69
2022/09/10 09:48:21;;;;;;;13.20;11.60;;;14.60;99.90;;;;;;5050785;28;20753;-72
2022/09/10 09:50:52;;;;;;;15.83;11.70;;;14.60;99.90;;;;;;5051391;28;20217;-71
2022/09/10 09:53:22;;;;;;;12.83;11.30;;;14.60;99.90;;;;;;5041008;28;20206;-71
2022/09/10 09:55:52;;;;;;;12.60;10.50;;;14.60;99.90;;;;;;5046048;28;20606;-69
2022/09/10 09:58:33;;;;;;;12.13;10.87;;;14.60;99.90;;;;;;5050201;28;20206;-72
2022/09/10 10:01:22;;;;;;;13.90;10.83;;;14.70;99.90;;;;;;5043387;28;20210;-70
2022/09/10 10:03:53;;;;;;;12.10;10.80;;;14.70;99.90;;;;;;5045026;28;20662;-70
2022/09/10 10:06:23;;;;;;;11.10;9.90;;;14.70;99.90;;;;;;5050610;28;20298;-71
2022/09/10 10:09:00;;;;;;;11.77;10.57;;;14.80;99.90;;;;;;5041681;28;20562;-71
2022/09/10 10:11:49;;;;;;;11.87;10.30;;;14.90;99.90;;;;;;5046927;28;20284;-70
2022/09/10 10:14:44;;;;;;;10.37;9.27;;;14.90;99.90;;;;;;5047122;28;20202;-70
2022/09/10 10:17:38;;;;;;;12.00;9.97;;;14.90;99.90;;;;;;5040379;28;20225;-72
2022/09/10 10:20:08;;;;;;;13.93;10.10;;;14.90;99.90;;;;;;5040756;28;20217;-71
2022/09/10 10:22:38;;;;;;;12.07;9.70;;;14.90;99.90;;;;;;5051572;28;20700;-72
2022/09/10 10:25:26;;;;;;;12.57;9.83;;;14.90;99.90;;;;;;5050004;28;20208;-71
2022/09/10 10:27:54;;;;;;;11.53;9.63;;;14.80;99.90;;;;;;5050949;28;20206;-71
2022/09/10 10:30:23;;;;;;;10.10;9.07;;;14.90;99.90;;;;;;5040625;28;20229;-71
2022/09/10 10:32:54;;;;;;;10.00;8.90;;;14.90;99.90;;;;;;5047912;28;20236;-71
2022/09/10 10:35:34;;;;;;;10.17;8.77;;;15.00;99.90;;;;;;5042214;28;20238;-70
2022/09/10 10:38:19;;;;;;;10.53;9.43;;;15.00;99.90;;;;;;5046604;28;20237;-70
2022/09/10 10:40:55;;;;;;;11.37;10.23;;;15.10;99.90;;;;;;5040309;28;20291;-71
2022/09/10 10:43:34;;;;;;;11.30;10.27;;;15.10;99.90;;;;;;5051612;28;20207;-72
2022/09/10 10:46:04;;;;;;;12.30;10.10;;;15.10;99.90;;;;;;5036046;28;20489;-71
2022/09/10 10:48:46;;;;;;;10.15;9.13;;;15.10;99.90;;;;;;5040472;28;20248;-71
2022/09/10 10:51:18;;;;;;;10.60;9.50;;;15.10;99.90;;;;;;5045942;28;20205;-71
2022/09/10 10:54:19;;;;;;;10.30;8.53;;;15.00;99.90;;;;;;5048801;28;20598;-71
2022/09/10 10:56:58;;;;;;;10.27;9.07;;;14.90;99.90;;;;;;5036847;28;20201;-72
2022/09/10 10:59:38;;;;;;;9.03;8.13;;;15.00;99.90;;;;;;5045435;28;20205;-70
2022/09/10 11:02:15;;;;;;;9.40;8.40;;;15.00;99.90;;;;;;5032437;28;20669;-70
2022/09/10 11:04:46;;;;;;;11.70;8.77;;;14.90;99.90;;;;;;5048744;28;20208;-71
2022/09/10 11:07:20;;;;;;;8.93;7.60;;;14.80;99.90;;;;;;5047672;28;20694;-71
2022/09/10 11:09:54;;;;;;;8.53;7.50;;;14.80;99.90;;;;;;5048827;28;20229;-71
2022/09/10 11:12:30;;;;;;;11.53;8.10;;;14.70;99.90;;;;;;5041365;28;20223;-71
2022/09/10 11:15:01;;;;;;;9.87;8.50;;;14.80;99.90;;;;;;5050265;28;20276;-70
2022/09/10 11:17:38;;;;;;;9.67;8.67;;;14.80;99.90;;;;;;5047576;28;20466;-70
2022/09/10 11:20:12;;;;;;;10.63;7.90;;;14.80;99.90;;;;;;5044746;28;20289;-71
2022/09/10 11:22:46;;;;;;;10.40;7.90;;;14.80;99.90;;;;;;5043937;28;20237;-71
2022/09/10 11:25:21;;;;;;;9.37;7.97;;;14.80;99.90;;;;;;5041355;28;20206;-71
2022/09/10 11:27:52;;;;;;;8.93;8.03;;;14.80;99.90;;;;;;5046429;28;20210;-69
2022/09/10 11:30:19;;;;;;;8.83;7.53;;;14.80;99.90;;;;;;5040464;28;20210;-70
2022/09/10 11:32:53;;;;;;;13.67;8.20;;;14.90;99.90;;;;;;5050304;28;20221;-70
2022/09/10 11:35:23;;;;;;;9.73;8.33;;;14.80;99.90;;;;;;5042648;28;20264;-71
2022/09/10 11:37:57;;;;;;;8.57;7.73;;;14.90;99.90;;;;;;5054636;28;20233;-71
2022/09/10 11:40:32;;;;;;;11.43;8.93;;;14.90;99.90;;;;;;5046116;28;20202;-71
2022/09/10 11:43:03;;;;;;;8.50;7.60;;;14.90;99.90;;;;;;5053669;28;20209;-71
2022/09/10 11:45:38;;;;;;;9.43;8.30;;;14.90;99.90;;;;;;5052362;28;20198;-70
2022/09/10 11:48:14;;;;;;;9.43;8.43;;;14.90;99.90;;;;;;5049917;28;20212;-71
2022/09/10 11:50:49;;;;;;;9.67;7.47;;;14.80;99.90;;;;;;5046076;28;20205;-71
2022/09/10 11:53:19;;;;;;;8.73;7.77;;;14.80;99.90;;;;;;5045063;28;20208;-70
2022/09/10 11:56:03;;;;;;;7.80;7.00;;;14.80;99.90;;;;;;5050311;28;20215;-70
2022/09/10 11:58:40;;;;;;;8.60;7.17;;;14.70;99.90;;;;;;5042225;28;20245;-71
2022/09/10 12:01:16;;;;;;;8.73;7.10;;;14.70;99.90;;;;;;5045860;28;20218;-70
2022/09/10 12:04:22;;;;;;;11.93;8.47;;;14.70;99.90;;;;;;5053475;28;20685;-70
2022/09/10 12:07:02;;;;;;;8.13;7.30;;;14.80;99.90;;;;;;5052921;28;20216;-72
2022/09/10 12:09:37;;;;;;;7.20;6.47;;;15.50;99.90;;;;;;5043850;28;20552;-70
2022/09/10 12:12:14;;;;;;;8.27;6.50;;;14.80;99.90;;;;;;5044680;28;20212;-70
2022/09/10 12:14:41;;;;;;;7.70;6.90;;;14.90;99.90;;;;;;5040790;28;20202;-71
2022/09/10 12:17:14;;;;;;;7.20;6.50;;;14.90;99.90;;;;;;5049945;28;20590;-70
2022/09/10 12:19:45;;;;;;;8.53;6.23;;;15.00;99.90;;;;;;5052796;28;20209;-70
2022/09/10 12:22:20;;;;;;;7.00;6.30;;;15.10;99.90;;;;;;5048634;28;20241;-70
2022/09/10 12:24:53;;;;;;;7.60;6.80;;;15.00;99.90;;;;;;5042699;28;20208;-70
2022/09/10 12:27:21;;;;;;;6.97;6.20;;;15.00;99.90;;;;;;5050329;28;20198;-71
2022/09/10 12:29:49;;;;;;;7.93;6.10;;;15.00;99.90;;;;;;5053347;28;20219;-71
2022/09/10 12:32:31;;;;;;;6.87;6.17;;;15.10;99.90;;;;;;5052905;28;20259;-71
2022/09/10 12:35:44;;;;;;;5.90;5.40;;;15.00;99.90;;;;;;5042858;28;20241;-71
2022/09/10 12:38:49;;;;;;;7.43;5.87;;;15.10;99.90;;;;;;5043796;28;20759;-71
2022/09/10 12:41:53;;;;;;;7.27;6.57;;;15.10;99.90;;;;;;5043522;28;20324;-70
2022/09/10 12:44:33;;;;;;;6.37;5.73;;;15.10;99.90;;;;;;5047468;28;20662;-69
2022/09/10 12:47:43;;;;;;;7.00;6.20;;;15.20;99.90;;;;;;5049429;28;20235;-71
2022/09/10 12:50:21;;;;;;;7.20;6.50;;;15.20;99.90;;;;;;5040563;28;20202;-71
2022/09/10 12:53:18;;;;;;;8.03;5.77;;;15.10;99.90;;;;;;5053870;28;20206;-70
2022/09/10 12:55:58;;;;;;;6.70;6.00;;;15.10;99.90;;;;;;5050597;28;20209;-71
2022/09/10 12:58:46;;;;;;;6.80;6.10;;;15.10;99.90;;;;;;5039475;28;20208;-71
2022/09/10 13:01:25;;;;;;;8.27;6.27;;;15.10;99.90;;;;;;5043463;28;20919;-71
2022/09/10 13:03:55;;;;;;;6.97;5.87;;;15.10;99.90;;;;;;5043854;28;20210;-71